sensor_id;sensor_type;location;lat;lon;timestamp;pressure;altitude;pressure_sealevel;temperature;humidity
76404;BME280;65232;48.358;2.122;2023-08-06T00:00:03;100436.84;;;15.13;89.85
76404;BME280;65232;48.358;2.122;2023-08-06T00:00:34;100437.50;;;15.15;89.88
76404;BME280;65232;48.358;2.122;2023-08-06T00:00:59;100442.72;;;15.17;89.04
76404;BME280;65232;48.358;2.122;2023-08-06T00:01:25;100440.56;;;15.29;88.63
76404;BME280;65232;48.358;2.122;2023-08-06T00:01:50;100439.53;;;15.30;88.12
76404;BME280;65232;48.358;2.122;2023-08-06T00:02:16;100442.94;;;15.32;88.01
76404;BME280;65232;48.358;2.122;2023-08-06T00:02:41;100438.06;;;15.27;88.37
76404;BME280;65232;48.358;2.122;2023-08-06T00:03:07;100434.00;;;15.23;88.10
76404;BME280;65232;48.358;2.122;2023-08-06T00:03:32;100443.56;;;15.17;88.47
76404;BME280;65232;48.358;2.122;2023-08-06T00:03:58;100438.19;;;15.17;89.14
76404;BME280;65232;48.358;2.122;2023-08-06T00:04:25;100438.53;;;15.23;88.32
76404;BME280;65232;48.358;2.122;2023-08-06T00:04:50;100439.72;;;15.20;88.77
76404;BME280;65232;48.358;2.122;2023-08-06T00:05:16;100438.38;;;15.24;88.53
76404;BME280;65232;48.358;2.122;2023-08-06T00:05:46;100444.25;;;15.20;88.69
76404;BME280;65232;48.358;2.122;2023-08-06T00:06:14;100442.75;;;15.25;87.99
76404;BME280;65232;48.358;2.122;2023-08-06T00:06:40;100443.25;;;15.29;87.09
76404;BME280;65232;48.358;2.122;2023-08-06T00:07:05;100443.44;;;15.27;86.60
76404;BME280;65232;48.358;2.122;2023-08-06T00:07:31;100442.59;;;15.35;86.86
76404;BME280;65232;48.358;2.122;2023-08-06T00:07:57;100445.97;;;15.37;86.42
76404;BME280;65232;48.358;2.122;2023-08-06T00:08:22;100448.16;;;15.33;87.43
76404;BME280;65232;48.358;2.122;2023-08-06T00:08:48;100454.41;;;15.42;86.77
76404;BME280;65232;48.358;2.122;2023-08-06T00:09:13;100445.63;;;15.48;86.63
76404;BME280;65232;48.358;2.122;2023-08-06T00:09:42;100452.22;;;15.45;86.56
76404;BME280;65232;48.358;2.122;2023-08-06T00:10:07;100453.22;;;15.44;86.33
76404;BME280;65232;48.358;2.122;2023-08-06T00:10:33;100447.66;;;15.38;85.94
76404;BME280;65232;48.358;2.122;2023-08-06T00:11:04;100454.91;;;15.37;85.37
76404;BME280;65232;48.358;2.122;2023-08-06T00:11:35;100449.69;;;15.52;85.05
76404;BME280;65232;48.358;2.122;2023-08-06T00:12:01;100444.97;;;15.38;85.12
76404;BME280;65232;48.358;2.122;2023-08-06T00:12:26;100445.28;;;15.35;85.25
76404;BME280;65232;48.358;2.122;2023-08-06T00:12:54;100449.16;;;15.24;85.48
76404;BME280;65232;48.358;2.122;2023-08-06T00:13:20;100442.09;;;15.23;85.52
76404;BME280;65232;48.358;2.122;2023-08-06T00:13:45;100449.31;;;15.23;86.08
76404;BME280;65232;48.358;2.122;2023-08-06T00:14:11;100459.59;;;15.19;86.56
76404;BME280;65232;48.358;2.122;2023-08-06T00:14:36;100448.31;;;15.24;86.17
76404;BME280;65232;48.358;2.122;2023-08-06T00:15:02;100451.19;;;15.30;85.19
76404;BME280;65232;48.358;2.122;2023-08-06T00:15:27;100455.03;;;15.20;86.02
76404;BME280;65232;48.358;2.122;2023-08-06T00:15:52;100457.25;;;15.24;85.32
76404;BME280;65232;48.358;2.122;2023-08-06T00:16:18;100455.19;;;15.18;85.04
76404;BME280;65232;48.358;2.122;2023-08-06T00:16:44;100461.78;;;15.24;84.60
76404;BME280;65232;48.358;2.122;2023-08-06T00:17:10;100453.88;;;15.22;84.80
76404;BME280;65232;48.358;2.122;2023-08-06T00:17:36;100454.38;;;15.26;84.91
76404;BME280;65232;48.358;2.122;2023-08-06T00:18:01;100459.78;;;15.34;84.50
76404;BME280;65232;48.358;2.122;2023-08-06T00:18:27;100459.63;;;15.43;84.36
76404;BME280;65232;48.358;2.122;2023-08-06T00:18:55;100463.16;;;15.44;84.26
76404;BME280;65232;48.358;2.122;2023-08-06T00:19:21;100463.34;;;15.50;83.85
76404;BME280;65232;48.358;2.122;2023-08-06T00:19:47;100467.97;;;15.58;83.56
76404;BME280;65232;48.358;2.122;2023-08-06T00:20:12;100459.50;;;15.61;83.35
76404;BME280;65232;48.358;2.122;2023-08-06T00:20:44;100462.03;;;15.63;83.38
76404;BME280;65232;48.358;2.122;2023-08-06T00:21:12;100462.56;;;15.58;83.20
76404;BME280;65232;48.358;2.122;2023-08-06T00:21:38;100463.03;;;15.53;83.07
76404;BME280;65232;48.358;2.122;2023-08-06T00:22:04;100468.38;;;15.45;83.30
76404;BME280;65232;48.358;2.122;2023-08-06T00:22:36;100465.59;;;15.55;83.40
76404;BME280;65232;48.358;2.122;2023-08-06T00:23:02;100465.72;;;15.53;82.54
76404;BME280;65232;48.358;2.122;2023-08-06T00:23:28;100470.81;;;15.57;82.21
76404;BME280;65232;48.358;2.122;2023-08-06T00:23:53;100464.72;;;15.63;81.65
76404;BME280;65232;48.358;2.122;2023-08-06T00:24:19;100465.03;;;15.51;82.09
76404;BME280;65232;48.358;2.122;2023-08-06T00:24:44;100466.53;;;15.46;82.88
76404;BME280;65232;48.358;2.122;2023-08-06T00:25:12;100469.91;;;15.48;82.44
76404;BME280;65232;48.358;2.122;2023-08-06T00:25:40;100472.09;;;15.36;83.80
76404;BME280;65232;48.358;2.122;2023-08-06T00:26:10;100465.84;;;15.36;83.05
76404;BME280;65232;48.358;2.122;2023-08-06T00:26:38;100472.59;;;15.32;83.82
76404;BME280;65232;48.358;2.122;2023-08-06T00:27:07;100473.09;;;15.43;83.02
76404;BME280;65232;48.358;2.122;2023-08-06T00:27:33;100474.31;;;15.49;82.90
76404;BME280;65232;48.358;2.122;2023-08-06T00:27:59;100471.97;;;15.54;83.43
76404;BME280;65232;48.358;2.122;2023-08-06T00:28:25;100477.22;;;15.64;82.51
76404;BME280;65232;48.358;2.122;2023-08-06T00:28:50;100475.88;;;15.68;81.41
76404;BME280;65232;48.358;2.122;2023-08-06T00:29:25;100473.69;;;15.55;81.39
76404;BME280;65232;48.358;2.122;2023-08-06T00:29:52;100482.22;;;15.50;82.22
76404;BME280;65232;48.358;2.122;2023-08-06T00:30:17;100484.31;;;15.57;81.98
76404;BME280;65232;48.358;2.122;2023-08-06T00:30:43;100478.00;;;15.40;82.11
76404;BME280;65232;48.358;2.122;2023-08-06T00:31:09;100479.69;;;15.41;82.19
76404;BME280;65232;48.358;2.122;2023-08-06T00:31:34;100490.81;;;15.38;82.79
76404;BME280;65232;48.358;2.122;2023-08-06T00:32:00;100492.81;;;15.44;82.49
76404;BME280;65232;48.358;2.122;2023-08-06T00:32:28;100492.66;;;15.45;82.61
76404;BME280;65232;48.358;2.122;2023-08-06T00:32:53;100478.00;;;15.48;82.28
76404;BME280;65232;48.358;2.122;2023-08-06T00:33:19;100484.47;;;15.55;81.79
76404;BME280;65232;48.358;2.122;2023-08-06T00:33:45;100489.69;;;15.65;81.24
76404;BME280;65232;48.358;2.122;2023-08-06T00:34:11;100484.94;;;15.59;82.02
76404;BME280;65232;48.358;2.122;2023-08-06T00:34:37;100487.16;;;15.55;82.97
76404;BME280;65232;48.358;2.122;2023-08-06T00:35:02;100493.19;;;15.49;82.21
76404;BME280;65232;48.358;2.122;2023-08-06T00:35:31;100492.66;;;15.37;82.63
76404;BME280;65232;48.358;2.122;2023-08-06T00:35:57;100494.03;;;15.49;82.34
76404;BME280;65232;48.358;2.122;2023-08-06T00:36:22;100485.78;;;15.51;82.08
76404;BME280;65232;48.358;2.122;2023-08-06T00:36:50;100497.56;;;15.50;82.34
76404;BME280;65232;48.358;2.122;2023-08-06T00:37:16;100499.25;;;15.51;82.21
76404;BME280;65232;48.358;2.122;2023-08-06T00:37:42;100503.44;;;15.37;83.08
76404;BME280;65232;48.358;2.122;2023-08-06T00:38:08;100493.19;;;15.41;82.74
76404;BME280;65232;48.358;2.122;2023-08-06T00:38:33;100495.53;;;15.44;82.92
76404;BME280;65232;48.358;2.122;2023-08-06T00:38:59;100492.19;;;15.42;83.28
76404;BME280;65232;48.358;2.122;2023-08-06T00:39:27;100492.19;;;15.42;83.07
76404;BME280;65232;48.358;2.122;2023-08-06T00:39:52;100490.63;;;15.31;83.38
76404;BME280;65232;48.358;2.122;2023-08-06T00:40:20;100496.88;;;15.48;83.02
76404;BME280;65232;48.358;2.122;2023-08-06T00:40:46;100497.91;;;15.47;83.57
76404;BME280;65232;48.358;2.122;2023-08-06T00:41:13;100496.78;;;15.58;82.61
76404;BME280;65232;48.358;2.122;2023-08-06T00:41:39;100501.09;;;15.42;83.21
76404;BME280;65232;48.358;2.122;2023-08-06T00:42:05;100497.88;;;15.39;83.42
76404;BME280;65232;48.358;2.122;2023-08-06T00:42:30;100501.44;;;15.39;83.26
76404;BME280;65232;48.358;2.122;2023-08-06T00:42:56;100503.94;;;15.33;83.22
76404;BME280;65232;48.358;2.122;2023-08-06T00:43:21;100503.75;;;15.26;84.47
76404;BME280;65232;48.358;2.122;2023-08-06T00:43:47;100500.53;;;15.23;84.67
76404;BME280;65232;48.358;2.122;2023-08-06T00:44:15;100497.53;;;15.26;84.81
76404;BME280;65232;48.358;2.122;2023-08-06T00:44:40;100507.47;;;15.25;84.58
76404;BME280;65232;48.358;2.122;2023-08-06T00:45:07;100500.88;;;15.20;84.34
76404;BME280;65232;48.358;2.122;2023-08-06T00:45:37;100501.88;;;15.18;84.73
76404;BME280;65232;48.358;2.122;2023-08-06T00:46:03;100504.41;;;15.20;84.86
76404;BME280;65232;48.358;2.122;2023-08-06T00:46:30;100509.81;;;15.20;84.81
76404;BME280;65232;48.358;2.122;2023-08-06T00:46:58;100505.41;;;15.11;84.41
76404;BME280;65232;48.358;2.122;2023-08-06T00:47:26;100517.72;;;15.13;84.51
76404;BME280;65232;48.358;2.122;2023-08-06T00:47:52;100511.16;;;15.24;84.30
76404;BME280;65232;48.358;2.122;2023-08-06T00:48:18;100509.97;;;15.18;84.55
76404;BME280;65232;48.358;2.122;2023-08-06T00:48:44;100510.78;;;15.11;85.96
76404;BME280;65232;48.358;2.122;2023-08-06T00:49:10;100508.38;;;15.00;86.05
76404;BME280;65232;48.358;2.122;2023-08-06T00:49:39;100507.88;;;14.96;86.02
76404;BME280;65232;48.358;2.122;2023-08-06T00:50:07;100511.38;;;14.89;86.08
76404;BME280;65232;48.358;2.122;2023-08-06T00:50:35;100514.28;;;14.95;85.86
76404;BME280;65232;48.358;2.122;2023-08-06T00:51:01;100509.91;;;15.02;86.29
76404;BME280;65232;48.358;2.122;2023-08-06T00:51:27;100507.22;;;15.02;85.74
76404;BME280;65232;48.358;2.122;2023-08-06T00:52:39;100514.66;;;15.16;84.77
76404;BME280;65232;48.358;2.122;2023-08-06T00:53:06;100512.19;;;15.23;85.13
76404;BME280;65232;48.358;2.122;2023-08-06T00:53:31;100512.19;;;15.31;84.34
76404;BME280;65232;48.358;2.122;2023-08-06T00:54:01;100519.63;;;15.37;83.64
76404;BME280;65232;48.358;2.122;2023-08-06T00:54:27;100515.72;;;15.24;84.64
76404;BME280;65232;48.358;2.122;2023-08-06T00:54:52;100524.28;;;15.19;85.22
76404;BME280;65232;48.358;2.122;2023-08-06T00:55:18;100516.69;;;15.14;85.10
76404;BME280;65232;48.358;2.122;2023-08-06T00:55:44;100512.81;;;15.09;85.62
76404;BME280;65232;48.358;2.122;2023-08-06T00:56:10;100518.53;;;15.14;85.24
76404;BME280;65232;48.358;2.122;2023-08-06T00:56:36;100513.97;;;15.14;84.51
76404;BME280;65232;48.358;2.122;2023-08-06T00:57:03;100516.50;;;15.08;85.26
76404;BME280;65232;48.358;2.122;2023-08-06T00:57:30;100506.53;;;15.00;84.92
76404;BME280;65232;48.358;2.122;2023-08-06T00:57:55;100515.19;;;15.12;84.17
76404;BME280;65232;48.358;2.122;2023-08-06T00:58:21;100516.66;;;15.06;84.91
76404;BME280;65232;48.358;2.122;2023-08-06T00:58:47;100508.25;;;15.09;85.02
76404;BME280;65232;48.358;2.122;2023-08-06T00:59:14;100509.75;;;15.04;84.89
76404;BME280;65232;48.358;2.122;2023-08-06T00:59:39;100510.41;;;14.98;85.46
76404;BME280;65232;48.358;2.122;2023-08-06T01:00:05;100508.34;;;14.92;84.34
76404;BME280;65232;48.358;2.122;2023-08-06T01:00:31;100513.59;;;15.01;84.17
76404;BME280;65232;48.358;2.122;2023-08-06T01:00:57;100515.50;;;15.17;84.25
76404;BME280;65232;48.358;2.122;2023-08-06T01:01:23;100510.81;;;15.19;83.99
76404;BME280;65232;48.358;2.122;2023-08-06T01:01:48;100501.06;;;15.26;83.68
76404;BME280;65232;48.358;2.122;2023-08-06T01:02:18;100513.50;;;15.19;83.46
76404;BME280;65232;48.358;2.122;2023-08-06T01:02:44;100516.19;;;15.19;83.23
76404;BME280;65232;48.358;2.122;2023-08-06T01:03:09;100511.50;;;15.29;82.51
76404;BME280;65232;48.358;2.122;2023-08-06T01:03:35;100520.78;;;15.35;82.58
76404;BME280;65232;48.358;2.122;2023-08-06T01:04:01;100524.44;;;15.17;82.55
76404;BME280;65232;48.358;2.122;2023-08-06T01:04:27;100515.84;;;15.14;82.40
76404;BME280;65232;48.358;2.122;2023-08-06T01:04:52;100527.16;;;15.17;82.01
76404;BME280;65232;48.358;2.122;2023-08-06T01:05:18;100519.53;;;15.05;82.97
76404;BME280;65232;48.358;2.122;2023-08-06T01:05:44;100523.38;;;15.02;83.39
76404;BME280;65232;48.358;2.122;2023-08-06T01:06:10;100521.69;;;15.01;83.54
76404;BME280;65232;48.358;2.122;2023-08-06T01:07:21;100524.38;;;15.01;83.67
76404;BME280;65232;48.358;2.122;2023-08-06T01:08:51;100525.22;;;15.02;82.54
76404;BME280;65232;48.358;2.122;2023-08-06T01:09:35;100531.47;;;15.02;83.38
76404;BME280;65232;48.358;2.122;2023-08-06T01:11:41;100533.19;;;15.11;82.84
76404;BME280;65232;48.358;2.122;2023-08-06T01:12:21;100533.69;;;15.15;81.84
76404;BME280;65232;48.358;2.122;2023-08-06T01:14:26;100534.91;;;15.12;82.17
76404;BME280;65232;48.358;2.122;2023-08-06T01:15:28;100528.31;;;15.15;81.65
76404;BME280;65232;48.358;2.122;2023-08-06T01:15:55;100536.75;;;15.12;82.27
76404;BME280;65232;48.358;2.122;2023-08-06T01:16:27;100532.34;;;15.11;82.58
76404;BME280;65232;48.358;2.122;2023-08-06T01:16:54;100532.53;;;15.17;82.25
76404;BME280;65232;48.358;2.122;2023-08-06T01:17:21;100529.84;;;15.17;81.88
76404;BME280;65232;48.358;2.122;2023-08-06T01:17:49;100532.19;;;15.12;83.12
76404;BME280;65232;48.358;2.122;2023-08-06T01:18:15;100526.59;;;15.06;82.86
76404;BME280;65232;48.358;2.122;2023-08-06T01:18:41;100530.63;;;15.02;82.55
76404;BME280;65232;48.358;2.122;2023-08-06T01:19:18;100536.06;;;15.10;82.30
76404;BME280;65232;48.358;2.122;2023-08-06T01:19:44;100530.84;;;15.16;81.52
76404;BME280;65232;48.358;2.122;2023-08-06T01:20:09;100533.03;;;15.13;81.90
76404;BME280;65232;48.358;2.122;2023-08-06T01:20:35;100534.69;;;15.14;82.51
76404;BME280;65232;48.358;2.122;2023-08-06T01:21:01;100530.34;;;15.13;82.56
76404;BME280;65232;48.358;2.122;2023-08-06T01:21:26;100534.91;;;15.12;82.09
76404;BME280;65232;48.358;2.122;2023-08-06T01:21:52;100543.81;;;15.13;81.87
76404;BME280;65232;48.358;2.122;2023-08-06T01:22:17;100546.69;;;15.11;82.11
76404;BME280;65232;48.358;2.122;2023-08-06T01:22:43;100537.84;;;15.01;83.12
76404;BME280;65232;48.358;2.122;2023-08-06T01:23:08;100541.25;;;15.03;83.33
76404;BME280;65232;48.358;2.122;2023-08-06T01:23:34;100542.78;;;15.06;83.47
76404;BME280;65232;48.358;2.122;2023-08-06T01:23:59;100552.50;;;14.99;83.68
76404;BME280;65232;48.358;2.122;2023-08-06T01:24:25;100551.50;;;15.00;83.08
76404;BME280;65232;48.358;2.122;2023-08-06T01:24:50;100553.94;;;15.11;82.93
76404;BME280;65232;48.358;2.122;2023-08-06T01:25:16;100558.94;;;15.06;82.74
76404;BME280;65232;48.358;2.122;2023-08-06T01:26:00;100560.25;;;15.02;83.04
76404;BME280;65232;48.358;2.122;2023-08-06T01:26:33;100560.94;;;15.04;83.26
76404;BME280;65232;48.358;2.122;2023-08-06T01:27:17;100563.63;;;14.96;83.50
76404;BME280;65232;48.358;2.122;2023-08-06T01:27:49;100564.47;;;14.96;82.82
76404;BME280;65232;48.358;2.122;2023-08-06T01:28:32;100566.16;;;14.97;83.89
76404;BME280;65232;48.358;2.122;2023-08-06T01:29:20;100563.72;;;14.86;83.30
76404;BME280;65232;48.358;2.122;2023-08-06T01:30:30;100563.94;;;14.93;83.32
76404;BME280;65232;48.358;2.122;2023-08-06T01:31:02;100570.34;;;15.00;82.55
76404;BME280;65232;48.358;2.122;2023-08-06T01:31:50;100572.63;;;15.12;82.18
76404;BME280;65232;48.358;2.122;2023-08-06T01:32:17;100571.28;;;15.16;81.62
76404;BME280;65232;48.358;2.122;2023-08-06T01:32:49;100572.44;;;15.14;81.36
76404;BME280;65232;48.358;2.122;2023-08-06T01:33:19;100571.41;;;15.07;81.40
76404;BME280;65232;48.358;2.122;2023-08-06T01:33:47;100575.97;;;15.06;81.47
76404;BME280;65232;48.358;2.122;2023-08-06T01:34:18;100580.13;;;15.01;82.42
76404;BME280;65232;48.358;2.122;2023-08-06T01:34:46;100576.09;;;14.97;83.24
76404;BME280;65232;48.358;2.122;2023-08-06T01:35:14;100575.94;;;14.98;82.61
76404;BME280;65232;48.358;2.122;2023-08-06T01:35:40;100582.56;;;15.12;81.69
76404;BME280;65232;48.358;2.122;2023-08-06T01:36:06;100571.50;;;15.23;81.42
76404;BME280;65232;48.358;2.122;2023-08-06T01:36:32;100574.81;;;15.09;81.96
76404;BME280;65232;48.358;2.122;2023-08-06T01:37:00;100576.28;;;15.03;82.40
76404;BME280;65232;48.358;2.122;2023-08-06T01:37:27;100584.22;;;15.05;81.72
76404;BME280;65232;48.358;2.122;2023-08-06T01:37:53;100572.75;;;15.03;82.33
76404;BME280;65232;48.358;2.122;2023-08-06T01:38:22;100573.75;;;15.02;81.40
76404;BME280;65232;48.358;2.122;2023-08-06T01:38:48;100569.19;;;15.02;81.71
76404;BME280;65232;48.358;2.122;2023-08-06T01:39:14;100566.03;;;15.07;81.17
76404;BME280;65232;48.358;2.122;2023-08-06T01:39:42;100574.31;;;15.13;80.73
76404;BME280;65232;48.358;2.122;2023-08-06T01:40:12;100576.34;;;15.20;80.80
76404;BME280;65232;48.358;2.122;2023-08-06T01:40:38;100573.19;;;15.24;80.76
76404;BME280;65232;48.358;2.122;2023-08-06T01:41:04;100570.31;;;15.26;80.52
76404;BME280;65232;48.358;2.122;2023-08-06T01:41:29;100579.44;;;15.33;80.89
76404;BME280;65232;48.358;2.122;2023-08-06T01:41:56;100575.72;;;15.26;81.09
76404;BME280;65232;48.358;2.122;2023-08-06T01:42:22;100580.59;;;15.22;80.87
76404;BME280;65232;48.358;2.122;2023-08-06T01:42:47;100576.19;;;15.21;81.07
76404;BME280;65232;48.358;2.122;2023-08-06T01:43:13;100575.13;;;15.14;81.11
76404;BME280;65232;48.358;2.122;2023-08-06T01:43:38;100572.81;;;15.19;81.16
76404;BME280;65232;48.358;2.122;2023-08-06T01:44:04;100576.72;;;15.25;81.01
76404;BME280;65232;48.358;2.122;2023-08-06T01:44:30;100573.50;;;15.29;80.76
76404;BME280;65232;48.358;2.122;2023-08-06T01:44:56;100575.72;;;15.26;80.75
76404;BME280;65232;48.358;2.122;2023-08-06T01:45:21;100573.72;;;15.28;80.88
76404;BME280;65232;48.358;2.122;2023-08-06T01:45:49;100577.56;;;15.25;81.69
76404;BME280;65232;48.358;2.122;2023-08-06T01:46:14;100577.03;;;15.22;81.03
76404;BME280;65232;48.358;2.122;2023-08-06T01:46:40;100568.41;;;15.10;81.11
76404;BME280;65232;48.358;2.122;2023-08-06T01:47:06;100574.47;;;15.12;81.13
76404;BME280;65232;48.358;2.122;2023-08-06T01:47:32;100576.34;;;15.11;80.93
76404;BME280;65232;48.358;2.122;2023-08-06T01:47:57;100571.50;;;15.23;80.79
76404;BME280;65232;48.358;2.122;2023-08-06T01:48:23;100581.75;;;15.20;80.25
76404;BME280;65232;48.358;2.122;2023-08-06T01:48:48;100574.50;;;15.20;80.71
76404;BME280;65232;48.358;2.122;2023-08-06T01:49:14;100578.69;;;15.14;80.71
76404;BME280;65232;48.358;2.122;2023-08-06T01:49:39;100571.97;;;15.18;80.84
76404;BME280;65232;48.358;2.122;2023-08-06T01:50:05;100574.19;;;15.23;79.68
76404;BME280;65232;48.358;2.122;2023-08-06T01:50:31;100575.66;;;15.17;80.69
76404;BME280;65232;48.358;2.122;2023-08-06T01:50:56;100578.34;;;15.17;81.03
76404;BME280;65232;48.358;2.122;2023-08-06T01:51:22;100575.81;;;15.16;80.92
76404;BME280;65232;48.358;2.122;2023-08-06T01:51:47;100582.44;;;15.22;80.39
76404;BME280;65232;48.358;2.122;2023-08-06T01:52:13;100577.91;;;15.30;80.07
76404;BME280;65232;48.358;2.122;2023-08-06T01:52:38;100576.72;;;15.33;79.32
76404;BME280;65232;48.358;2.122;2023-08-06T01:53:04;100584.03;;;15.40;79.18
76404;BME280;65232;48.358;2.122;2023-08-06T01:53:29;100587.41;;;15.42;78.97
76404;BME280;65232;48.358;2.122;2023-08-06T01:53:55;100582.81;;;15.35;79.03
76404;BME280;65232;48.358;2.122;2023-08-06T01:54:20;100580.13;;;15.35;78.84
76404;BME280;65232;48.358;2.122;2023-08-06T01:54:46;100585.03;;;15.39;79.03
76404;BME280;65232;48.358;2.122;2023-08-06T01:55:11;100587.53;;;15.33;79.25
76404;BME280;65232;48.358;2.122;2023-08-06T01:55:37;100578.06;;;15.29;79.38
76404;BME280;65232;48.358;2.122;2023-08-06T01:56:03;100590.34;;;15.23;79.90
76404;BME280;65232;48.358;2.122;2023-08-06T01:56:28;100581.94;;;15.26;79.57
76404;BME280;65232;48.358;2.122;2023-08-06T01:56:54;100586.00;;;15.30;79.05
76404;BME280;65232;48.358;2.122;2023-08-06T01:57:19;100581.44;;;15.31;79.44
76404;BME280;65232;48.358;2.122;2023-08-06T01:57:45;100594.06;;;15.30;78.62
76404;BME280;65232;48.358;2.122;2023-08-06T01:58:10;100587.84;;;15.30;78.42
76404;BME280;65232;48.358;2.122;2023-08-06T01:58:36;100589.06;;;15.35;79.11
76404;BME280;65232;48.358;2.122;2023-08-06T01:59:01;100587.84;;;15.30;78.05
76404;BME280;65232;48.358;2.122;2023-08-06T01:59:27;100584.50;;;15.28;78.24
76404;BME280;65232;48.358;2.122;2023-08-06T01:59:52;100586.81;;;15.23;78.64
76404;BME280;65232;48.358;2.122;2023-08-06T02:00:18;100582.13;;;15.25;78.93
76404;BME280;65232;48.358;2.122;2023-08-06T02:00:43;100581.94;;;15.26;79.15
76404;BME280;65232;48.358;2.122;2023-08-06T02:01:09;100589.00;;;15.19;79.78
76404;BME280;65232;48.358;2.122;2023-08-06T02:01:34;100587.81;;;15.13;79.83
76404;BME280;65232;48.358;2.122;2023-08-06T02:01:59;100586.28;;;15.11;79.71
76404;BME280;65232;48.358;2.122;2023-08-06T02:02:25;100579.88;;;15.12;80.06
76404;BME280;65232;48.358;2.122;2023-08-06T02:02:51;100582.56;;;15.12;79.46
76404;BME280;65232;48.358;2.122;2023-08-06T02:03:16;100585.09;;;15.13;79.24
76404;BME280;65232;48.358;2.122;2023-08-06T02:03:42;100580.50;;;15.06;80.13
76404;BME280;65232;48.358;2.122;2023-08-06T02:04:09;100585.59;;;15.09;80.38
76404;BME280;65232;48.358;2.122;2023-08-06T02:04:34;100582.22;;;15.15;79.90
76404;BME280;65232;48.358;2.122;2023-08-06T02:05:00;100591.31;;;15.14;80.34
76404;BME280;65232;48.358;2.122;2023-08-06T02:05:25;100591.03;;;15.25;79.36
76404;BME280;65232;48.358;2.122;2023-08-06T02:05:51;100592.91;;;15.33;79.14
76404;BME280;65232;48.358;2.122;2023-08-06T02:06:16;100588.84;;;15.29;78.85
76404;BME280;65232;48.358;2.122;2023-08-06T02:06:41;100591.53;;;15.29;79.65
76404;BME280;65232;48.358;2.122;2023-08-06T02:07:07;100592.06;;;15.24;79.07
76404;BME280;65232;48.358;2.122;2023-08-06T02:07:33;100591.16;;;15.15;79.50
76404;BME280;65232;48.358;2.122;2023-08-06T02:07:58;100587.81;;;15.13;79.85
76404;BME280;65232;48.358;2.122;2023-08-06T02:08:24;100585.75;;;15.15;79.58
76404;BME280;65232;48.358;2.122;2023-08-06T02:08:50;100583.22;;;15.14;79.45
76404;BME280;65232;48.358;2.122;2023-08-06T02:09:15;100591.84;;;15.17;79.80
76404;BME280;65232;48.358;2.122;2023-08-06T02:09:41;100582.91;;;15.17;79.58
76404;BME280;65232;48.358;2.122;2023-08-06T02:10:07;100593.53;;;15.18;79.66
76404;BME280;65232;48.358;2.122;2023-08-06T02:10:33;100585.59;;;15.17;79.94
76404;BME280;65232;48.358;2.122;2023-08-06T02:10:59;100596.91;;;15.21;79.90
76404;BME280;65232;48.358;2.122;2023-08-06T02:11:24;100591.03;;;15.25;80.03
76404;BME280;65232;48.358;2.122;2023-08-06T02:11:50;100589.88;;;15.28;79.47
76404;BME280;65232;48.358;2.122;2023-08-06T02:12:16;100586.84;;;15.31;78.98
76404;BME280;65232;48.358;2.122;2023-08-06T02:12:41;100593.06;;;15.31;78.52
76404;BME280;65232;48.358;2.122;2023-08-06T02:13:07;100591.91;;;15.34;78.38
76404;BME280;65232;48.358;2.122;2023-08-06T02:13:32;100588.91;;;15.37;78.44
76404;BME280;65232;48.358;2.122;2023-08-06T02:13:58;100590.53;;;15.30;78.71
76404;BME280;65232;48.358;2.122;2023-08-06T02:14:23;100597.13;;;15.27;79.22
76404;BME280;65232;48.358;2.122;2023-08-06T02:14:49;100595.13;;;15.37;78.48
76404;BME280;65232;48.358;2.122;2023-08-06T02:15:15;100588.53;;;15.32;78.50
76404;BME280;65232;48.358;2.122;2023-08-06T02:15:44;100590.03;;;15.26;78.44
76404;BME280;65232;48.358;2.122;2023-08-06T02:16:10;100596.47;;;15.33;78.26
76404;BME280;65232;48.358;2.122;2023-08-06T02:16:36;100594.66;;;15.42;78.13
76404;BME280;65232;48.358;2.122;2023-08-06T02:17:01;100602.06;;;15.48;77.76
76404;BME280;65232;48.358;2.122;2023-08-06T02:17:27;100595.66;;;15.49;77.57
76404;BME280;65232;48.358;2.122;2023-08-06T02:17:52;100590.94;;;15.43;78.13
76404;BME280;65232;48.358;2.122;2023-08-06T02:18:18;100599.00;;;15.35;78.63
76404;BME280;65232;48.358;2.122;2023-08-06T02:18:43;100598.63;;;15.30;77.73
76404;BME280;65232;48.358;2.122;2023-08-06T02:19:09;100590.59;;;15.38;77.16
76404;BME280;65232;48.358;2.122;2023-08-06T02:19:34;100601.16;;;15.31;77.07
76404;BME280;65232;48.358;2.122;2023-08-06T02:20:00;100593.06;;;15.31;77.21
76404;BME280;65232;48.358;2.122;2023-08-06T02:20:26;100596.28;;;15.27;77.10
76404;BME280;65232;48.358;2.122;2023-08-06T02:20:55;100595.44;;;15.34;77.77
76404;BME280;65232;48.358;2.122;2023-08-06T02:21:22;100592.38;;;15.29;78.26
76404;BME280;65232;48.358;2.122;2023-08-06T02:21:48;100594.44;;;15.35;78.06
76404;BME280;65232;48.358;2.122;2023-08-06T02:22:14;100596.13;;;15.36;77.40
76404;BME280;65232;48.358;2.122;2023-08-06T02:22:40;100597.50;;;15.40;77.01
76404;BME280;65232;48.358;2.122;2023-08-06T02:23:07;100596.97;;;15.37;77.20
76404;BME280;65232;48.358;2.122;2023-08-06T02:23:35;100599.16;;;15.33;77.44
76404;BME280;65232;48.358;2.122;2023-08-06T02:24:01;100596.28;;;15.27;78.11
76404;BME280;65232;48.358;2.122;2023-08-06T02:24:27;100602.47;;;15.19;78.20
76404;BME280;65232;48.358;2.122;2023-08-06T02:24:52;100604.38;;;15.27;78.38
76404;BME280;65232;48.358;2.122;2023-08-06T02:25:17;100595.94;;;15.30;78.42
76404;BME280;65232;48.358;2.122;2023-08-06T02:25:43;100594.22;;;15.21;78.33
76404;BME280;65232;48.358;2.122;2023-08-06T02:26:08;100601.16;;;15.31;77.90
76404;BME280;65232;48.358;2.122;2023-08-06T02:26:34;100594.59;;;15.34;77.47
76404;BME280;65232;48.358;2.122;2023-08-06T02:26:59;100602.16;;;15.30;78.00